sensor_id;sensor_type;location;lat;lon;timestamp;P1;durP1;ratioP1;P2;durP2;ratioP2
20824;SDS011;10573;50.936;6.978;2024-02-28T00:00:08;56.28;;;31.10;;
20824;SDS011;10573;50.936;6.978;2024-02-28T00:02:35;58.63;;;31.20;;
20824;SDS011;10573;50.936;6.978;2024-02-28T00:05:02;61.38;;;31.67;;
20824;SDS011;10573;50.936;6.978;2024-02-28T00:07:28;61.30;;;32.25;;
20824;SDS011;10573;50.936;6.978;2024-02-28T00:09:53;54.67;;;31.10;;
20824;SDS011;10573;50.936;6.978;2024-02-28T00:12:22;61.38;;;31.67;;
20824;SDS011;10573;50.936;6.978;2024-02-28T00:14:50;61.25;;;32.90;;
20824;SDS011;10573;50.936;6.978;2024-02-28T00:17:16;60.55;;;31.42;;
20824;SDS011;10573;50.936;6.978;2024-02-28T00:19:41;57.30;;;30.57;;
20824;SDS011;10573;50.936;6.978;2024-02-28T00:22:07;63.77;;;32.87;;
20824;SDS011;10573;50.936;6.978;2024-02-28T00:24:34;62.72;;;33.03;;
20824;SDS011;10573;50.936;6.978;2024-02-28T00:26:59;63.07;;;32.90;;
20824;SDS011;10573;50.936;6.978;2024-02-28T00:29:25;63.22;;;33.85;;
20824;SDS011;10573;50.936;6.978;2024-02-28T00:31:51;65.03;;;32.83;;
20824;SDS011;10573;50.936;6.978;2024-02-28T00:34:17;57.67;;;31.23;;
20824;SDS011;10573;50.936;6.978;2024-02-28T00:36:42;59.33;;;32.97;;
20824;SDS011;10573;50.936;6.978;2024-02-28T00:39:08;58.95;;;32.55;;
20824;SDS011;10573;50.936;6.978;2024-02-28T00:41:34;60.22;;;32.15;;
20824;SDS011;10573;50.936;6.978;2024-02-28T00:43:59;64.97;;;32.60;;
20824;SDS011;10573;50.936;6.978;2024-02-28T00:46:25;66.83;;;34.93;;
20824;SDS011;10573;50.936;6.978;2024-02-28T00:48:50;64.72;;;32.90;;
20824;SDS011;10573;50.936;6.978;2024-02-28T00:51:15;62.17;;;33.63;;
20824;SDS011;10573;50.936;6.978;2024-02-28T00:53:41;63.10;;;33.47;;
20824;SDS011;10573;50.936;6.978;2024-02-28T00:56:08;66.07;;;33.83;;
20824;SDS011;10573;50.936;6.978;2024-02-28T00:58:33;62.60;;;33.30;;
20824;SDS011;10573;50.936;6.978;2024-02-28T01:00:58;59.90;;;33.07;;
20824;SDS011;10573;50.936;6.978;2024-02-28T01:03:24;60.33;;;32.07;;
20824;SDS011;10573;50.936;6.978;2024-02-28T01:05:50;60.17;;;33.58;;
20824;SDS011;10573;50.936;6.978;2024-02-28T01:08:16;61.55;;;33.70;;
20824;SDS011;10573;50.936;6.978;2024-02-28T01:10:44;63.42;;;33.58;;
20824;SDS011;10573;50.936;6.978;2024-02-28T01:13:10;60.47;;;33.08;;
20824;SDS011;10573;50.936;6.978;2024-02-28T01:15:35;60.50;;;32.77;;
20824;SDS011;10573;50.936;6.978;2024-02-28T01:18:01;62.92;;;34.50;;
20824;SDS011;10573;50.936;6.978;2024-02-28T01:20:26;67.10;;;35.13;;
20824;SDS011;10573;50.936;6.978;2024-02-28T01:22:51;61.23;;;35.33;;
20824;SDS011;10573;50.936;6.978;2024-02-28T01:25:17;64.10;;;34.88;;
20824;SDS011;10573;50.936;6.978;2024-02-28T01:27:43;64.60;;;35.10;;
20824;SDS011;10573;50.936;6.978;2024-02-28T01:30:09;68.90;;;35.60;;
20824;SDS011;10573;50.936;6.978;2024-02-28T01:32:35;65.30;;;35.77;;
20824;SDS011;10573;50.936;6.978;2024-02-28T01:35:01;66.60;;;35.60;;
20824;SDS011;10573;50.936;6.978;2024-02-28T01:37:28;68.93;;;36.33;;
20824;SDS011;10573;50.936;6.978;2024-02-28T01:39:53;67.10;;;37.38;;
20824;SDS011;10573;50.936;6.978;2024-02-28T01:42:18;73.47;;;37.67;;
20824;SDS011;10573;50.936;6.978;2024-02-28T01:44:44;70.20;;;38.30;;
20824;SDS011;10573;50.936;6.978;2024-02-28T01:47:12;70.43;;;39.10;;
20824;SDS011;10573;50.936;6.978;2024-02-28T01:49:39;71.65;;;39.65;;
20824;SDS011;10573;50.936;6.978;2024-02-28T01:52:05;76.38;;;40.58;;
20824;SDS011;10573;50.936;6.978;2024-02-28T01:54:31;78.95;;;42.35;;
20824;SDS011;10573;50.936;6.978;2024-02-28T01:57:00;82.97;;;46.33;;
20824;SDS011;10573;50.936;6.978;2024-02-28T01:59:25;84.22;;;45.85;;
20824;SDS011;10573;50.936;6.978;2024-02-28T02:01:51;88.73;;;47.43;;
20824;SDS011;10573;50.936;6.978;2024-02-28T02:04:17;85.87;;;47.00;;
20824;SDS011;10573;50.936;6.978;2024-02-28T02:06:43;88.20;;;48.33;;
20824;SDS011;10573;50.936;6.978;2024-02-28T02:09:12;90.10;;;49.20;;
20824;SDS011;10573;50.936;6.978;2024-02-28T02:11:38;96.25;;;51.28;;
20824;SDS011;10573;50.936;6.978;2024-02-28T02:14:04;91.97;;;50.60;;
20824;SDS011;10573;50.936;6.978;2024-02-28T02:16:30;94.30;;;51.20;;
20824;SDS011;10573;50.936;6.978;2024-02-28T02:18:55;89.73;;;49.43;;
20824;SDS011;10573;50.936;6.978;2024-02-28T02:21:24;91.38;;;49.55;;
20824;SDS011;10573;50.936;6.978;2024-02-28T02:23:54;89.43;;;49.08;;
20824;SDS011;10573;50.936;6.978;2024-02-28T02:26:20;90.50;;;49.43;;
20824;SDS011;10573;50.936;6.978;2024-02-28T02:28:45;90.57;;;49.23;;
20824;SDS011;10573;50.936;6.978;2024-02-28T02:31:11;95.85;;;50.80;;
20824;SDS011;10573;50.936;6.978;2024-02-28T02:33:38;92.13;;;49.42;;
20824;SDS011;10573;50.936;6.978;2024-02-28T02:36:03;88.55;;;48.83;;
20824;SDS011;10573;50.936;6.978;2024-02-28T02:38:29;92.97;;;49.20;;
20824;SDS011;10573;50.936;6.978;2024-02-28T02:40:54;90.73;;;47.87;;
20824;SDS011;10573;50.936;6.978;2024-02-28T02:43:19;89.18;;;48.00;;
20824;SDS011;10573;50.936;6.978;2024-02-28T02:45:45;91.18;;;49.17;;
20824;SDS011;10573;50.936;6.978;2024-02-28T02:48:10;94.93;;;50.37;;
20824;SDS011;10573;50.936;6.978;2024-02-28T02:50:36;90.60;;;49.67;;
20824;SDS011;10573;50.936;6.978;2024-02-28T02:53:06;93.22;;;50.35;;
20824;SDS011;10573;50.936;6.978;2024-02-28T02:55:35;88.22;;;47.80;;
20824;SDS011;10573;50.936;6.978;2024-02-28T02:58:01;94.95;;;49.90;;
20824;SDS011;10573;50.936;6.978;2024-02-28T03:00:27;90.25;;;49.10;;
20824;SDS011;10573;50.936;6.978;2024-02-28T03:02:53;90.67;;;49.27;;
20824;SDS011;10573;50.936;6.978;2024-02-28T03:05:18;92.33;;;49.00;;
20824;SDS011;10573;50.936;6.978;2024-02-28T03:07:44;85.50;;;47.47;;
20824;SDS011;10573;50.936;6.978;2024-02-28T03:10:09;88.05;;;47.75;;
20824;SDS011;10573;50.936;6.978;2024-02-28T03:12:35;91.93;;;50.78;;
20824;SDS011;10573;50.936;6.978;2024-02-28T03:15:01;85.93;;;47.22;;
20824;SDS011;10573;50.936;6.978;2024-02-28T03:17:28;89.32;;;49.58;;
20824;SDS011;10573;50.936;6.978;2024-02-28T03:19:53;91.50;;;50.20;;
20824;SDS011;10573;50.936;6.978;2024-02-28T03:22:19;91.63;;;49.83;;
20824;SDS011;10573;50.936;6.978;2024-02-28T03:24:44;92.30;;;50.20;;
20824;SDS011;10573;50.936;6.978;2024-02-28T03:27:09;91.23;;;48.97;;
20824;SDS011;10573;50.936;6.978;2024-02-28T03:29:35;92.73;;;49.37;;
20824;SDS011;10573;50.936;6.978;2024-02-28T03:32:00;93.43;;;50.35;;
20824;SDS011;10573;50.936;6.978;2024-02-28T03:34:25;94.67;;;49.33;;
20824;SDS011;10573;50.936;6.978;2024-02-28T03:36:51;94.57;;;50.57;;
20824;SDS011;10573;50.936;6.978;2024-02-28T03:39:16;92.90;;;48.10;;
20824;SDS011;10573;50.936;6.978;2024-02-28T03:41:42;90.40;;;47.58;;
20824;SDS011;10573;50.936;6.978;2024-02-28T03:44:08;92.68;;;48.60;;
20824;SDS011;10573;50.936;6.978;2024-02-28T03:46:33;91.97;;;49.73;;
20824;SDS011;10573;50.936;6.978;2024-02-28T03:48:59;90.83;;;48.53;;
20824;SDS011;10573;50.936;6.978;2024-02-28T03:51:24;95.70;;;50.33;;
20824;SDS011;10573;50.936;6.978;2024-02-28T03:53:50;94.32;;;50.25;;
20824;SDS011;10573;50.936;6.978;2024-02-28T03:56:25;92.97;;;48.20;;
20824;SDS011;10573;50.936;6.978;2024-02-28T03:58:51;84.47;;;45.28;;
20824;SDS011;10573;50.936;6.978;2024-02-28T04:01:18;90.25;;;47.22;;
20824;SDS011;10573;50.936;6.978;2024-02-28T04:03:44;92.22;;;48.50;;
20824;SDS011;10573;50.936;6.978;2024-02-28T04:06:10;93.00;;;47.35;;
20824;SDS011;10573;50.936;6.978;2024-02-28T04:08:36;88.70;;;46.33;;
20824;SDS011;10573;50.936;6.978;2024-02-28T04:11:01;95.77;;;49.23;;
20824;SDS011;10573;50.936;6.978;2024-02-28T04:13:27;94.90;;;48.27;;
20824;SDS011;10573;50.936;6.978;2024-02-28T04:15:52;96.47;;;48.27;;
20824;SDS011;10573;50.936;6.978;2024-02-28T04:18:18;97.40;;;48.58;;
20824;SDS011;10573;50.936;6.978;2024-02-28T04:20:43;95.27;;;49.60;;
20824;SDS011;10573;50.936;6.978;2024-02-28T04:23:09;99.00;;;50.20;;
20824;SDS011;10573;50.936;6.978;2024-02-28T04:25:34;95.47;;;50.77;;
20824;SDS011;10573;50.936;6.978;2024-02-28T04:28:01;92.00;;;48.78;;
20824;SDS011;10573;50.936;6.978;2024-02-28T04:30:27;97.80;;;51.08;;
20824;SDS011;10573;50.936;6.978;2024-02-28T04:32:53;94.87;;;49.70;;
20824;SDS011;10573;50.936;6.978;2024-02-28T04:35:18;98.47;;;51.28;;
20824;SDS011;10573;50.936;6.978;2024-02-28T04:37:45;104.30;;;52.77;;
20824;SDS011;10573;50.936;6.978;2024-02-28T04:40:11;100.15;;;51.53;;
20824;SDS011;10573;50.936;6.978;2024-02-28T04:42:37;98.70;;;51.47;;
20824;SDS011;10573;50.936;6.978;2024-02-28T04:45:03;97.05;;;50.45;;
20824;SDS011;10573;50.936;6.978;2024-02-28T04:47:28;100.95;;;52.35;;
20824;SDS011;10573;50.936;6.978;2024-02-28T04:49:54;105.27;;;54.00;;
20824;SDS011;10573;50.936;6.978;2024-02-28T04:52:19;105.23;;;54.90;;
20824;SDS011;10573;50.936;6.978;2024-02-28T04:54:45;102.72;;;51.63;;
20824;SDS011;10573;50.936;6.978;2024-02-28T04:57:10;104.90;;;51.13;;
20824;SDS011;10573;50.936;6.978;2024-02-28T04:59:36;106.97;;;51.90;;
20824;SDS011;10573;50.936;6.978;2024-02-28T05:02:01;103.25;;;52.38;;
20824;SDS011;10573;50.936;6.978;2024-02-28T05:04:27;99.57;;;51.67;;
20824;SDS011;10573;50.936;6.978;2024-02-28T05:06:52;101.40;;;51.67;;
20824;SDS011;10573;50.936;6.978;2024-02-28T05:09:17;104.17;;;52.47;;
20824;SDS011;10573;50.936;6.978;2024-02-28T05:11:43;103.13;;;52.03;;
20824;SDS011;10573;50.936;6.978;2024-02-28T05:14:09;98.17;;;51.57;;
20824;SDS011;10573;50.936;6.978;2024-02-28T05:16:35;99.25;;;50.50;;
20824;SDS011;10573;50.936;6.978;2024-02-28T05:19:01;97.32;;;50.03;;
20824;SDS011;10573;50.936;6.978;2024-02-28T05:21:28;103.37;;;51.27;;
20824;SDS011;10573;50.936;6.978;2024-02-28T05:23:54;105.10;;;49.60;;
20824;SDS011;10573;50.936;6.978;2024-02-28T05:26:19;109.23;;;50.47;;
20824;SDS011;10573;50.936;6.978;2024-02-28T05:28:45;102.82;;;51.15;;
20824;SDS011;10573;50.936;6.978;2024-02-28T05:31:23;103.87;;;51.70;;
20824;SDS011;10573;50.936;6.978;2024-02-28T05:33:53;98.22;;;49.90;;
20824;SDS011;10573;50.936;6.978;2024-02-28T05:36:21;103.18;;;49.95;;
20824;SDS011;10573;50.936;6.978;2024-02-28T05:38:48;102.05;;;50.35;;
20824;SDS011;10573;50.936;6.978;2024-02-28T05:41:13;103.10;;;50.45;;
20824;SDS011;10573;50.936;6.978;2024-02-28T05:43:40;104.93;;;51.40;;
20824;SDS011;10573;50.936;6.978;2024-02-28T05:46:06;99.83;;;49.07;;
20824;SDS011;10573;50.936;6.978;2024-02-28T05:48:31;105.55;;;51.97;;
20824;SDS011;10573;50.936;6.978;2024-02-28T05:50:57;105.67;;;52.10;;
20824;SDS011;10573;50.936;6.978;2024-02-28T05:53:22;104.80;;;51.17;;
20824;SDS011;10573;50.936;6.978;2024-02-28T05:55:52;96.93;;;49.47;;
20824;SDS011;10573;50.936;6.978;2024-02-28T05:58:18;100.10;;;49.50;;
20824;SDS011;10573;50.936;6.978;2024-02-28T06:00:44;104.65;;;51.22;;
20824;SDS011;10573;50.936;6.978;2024-02-28T06:03:10;101.80;;;50.10;;
20824;SDS011;10573;50.936;6.978;2024-02-28T06:05:35;99.87;;;49.23;;
20824;SDS011;10573;50.936;6.978;2024-02-28T06:08:00;102.50;;;50.70;;
20824;SDS011;10573;50.936;6.978;2024-02-28T06:10:26;98.23;;;48.93;;
20824;SDS011;10573;50.936;6.978;2024-02-28T06:12:51;98.53;;;49.07;;
20824;SDS011;10573;50.936;6.978;2024-02-28T06:15:18;98.72;;;48.88;;
20824;SDS011;10573;50.936;6.978;2024-02-28T06:17:43;100.22;;;49.17;;
20824;SDS011;10573;50.936;6.978;2024-02-28T06:20:09;102.80;;;51.95;;
20824;SDS011;10573;50.936;6.978;2024-02-28T06:22:35;111.00;;;54.05;;
20824;SDS011;10573;50.936;6.978;2024-02-28T06:25:00;112.57;;;53.53;;
20824;SDS011;10573;50.936;6.978;2024-02-28T06:27:25;108.77;;;52.43;;
20824;SDS011;10573;50.936;6.978;2024-02-28T06:29:52;106.43;;;52.17;;
20824;SDS011;10573;50.936;6.978;2024-02-28T06:32:17;110.73;;;52.00;;
20824;SDS011;10573;50.936;6.978;2024-02-28T06:34:42;106.40;;;50.87;;
20824;SDS011;10573;50.936;6.978;2024-02-28T06:37:08;105.68;;;51.63;;
20824;SDS011;10573;50.936;6.978;2024-02-28T06:39:35;111.00;;;52.38;;
20824;SDS011;10573;50.936;6.978;2024-02-28T06:42:01;103.90;;;50.20;;
20824;SDS011;10573;50.936;6.978;2024-02-28T06:44:26;109.22;;;51.80;;
20824;SDS011;10573;50.936;6.978;2024-02-28T06:46:51;116.27;;;53.37;;
20824;SDS011;10573;50.936;6.978;2024-02-28T06:49:17;110.43;;;51.70;;
20824;SDS011;10573;50.936;6.978;2024-02-28T06:51:43;109.73;;;51.73;;
20824;SDS011;10573;50.936;6.978;2024-02-28T06:54:09;105.10;;;50.43;;
20824;SDS011;10573;50.936;6.978;2024-02-28T06:56:35;107.43;;;51.00;;
20824;SDS011;10573;50.936;6.978;2024-02-28T06:59:01;103.30;;;49.83;;
20824;SDS011;10573;50.936;6.978;2024-02-28T07:01:28;107.50;;;51.85;;
20824;SDS011;10573;50.936;6.978;2024-02-28T07:03:54;110.75;;;51.58;;
20824;SDS011;10573;50.936;6.978;2024-02-28T07:06:19;107.03;;;51.40;;
20824;SDS011;10573;50.936;6.978;2024-02-28T07:08:45;107.10;;;51.23;;
20824;SDS011;10573;50.936;6.978;2024-02-28T07:11:14;108.27;;;51.27;;
20824;SDS011;10573;50.936;6.978;2024-02-28T07:13:40;109.25;;;51.78;;
20824;SDS011;10573;50.936;6.978;2024-02-28T07:16:05;104.30;;;51.75;;
20824;SDS011;10573;50.936;6.978;2024-02-28T07:18:31;114.20;;;51.92;;
20824;SDS011;10573;50.936;6.978;2024-02-28T07:20:57;110.50;;;51.97;;
20824;SDS011;10573;50.936;6.978;2024-02-28T07:23:22;106.40;;;50.63;;
20824;SDS011;10573;50.936;6.978;2024-02-28T07:25:48;107.10;;;51.03;;
20824;SDS011;10573;50.936;6.978;2024-02-28T07:28:13;106.53;;;51.10;;
20824;SDS011;10573;50.936;6.978;2024-02-28T07:30:38;110.13;;;52.23;;
20824;SDS011;10573;50.936;6.978;2024-02-28T07:33:05;108.68;;;52.58;;
20824;SDS011;10573;50.936;6.978;2024-02-28T07:35:31;110.15;;;53.13;;
20824;SDS011;10573;50.936;6.978;2024-02-28T07:37:56;104.87;;;51.07;;
20824;SDS011;10573;50.936;6.978;2024-02-28T07:40:22;105.63;;;50.73;;
20824;SDS011;10573;50.936;6.978;2024-02-28T07:42:47;105.00;;;49.73;;
20824;SDS011;10573;50.936;6.978;2024-02-28T07:45:14;108.05;;;50.65;;
20824;SDS011;10573;50.936;6.978;2024-02-28T07:47:39;108.75;;;51.70;;
20824;SDS011;10573;50.936;6.978;2024-02-28T07:50:05;105.85;;;51.38;;
20824;SDS011;10573;50.936;6.978;2024-02-28T07:52:31;107.20;;;50.08;;
20824;SDS011;10573;50.936;6.978;2024-02-28T07:55:01;103.22;;;49.70;;
20824;SDS011;10573;50.936;6.978;2024-02-28T07:57:27;102.33;;;48.73;;
20824;SDS011;10573;50.936;6.978;2024-02-28T07:59:52;101.80;;;49.77;;
20824;SDS011;10573;50.936;6.978;2024-02-28T08:02:18;103.47;;;51.03;;
20824;SDS011;10573;50.936;6.978;2024-02-28T08:04:45;103.63;;;50.13;;
20824;SDS011;10573;50.936;6.978;2024-02-28T08:07:11;105.97;;;50.53;;
20824;SDS011;10573;50.936;6.978;2024-02-28T08:09:36;101.55;;;50.35;;
20824;SDS011;10573;50.936;6.978;2024-02-28T08:12:01;97.20;;;48.07;;
20824;SDS011;10573;50.936;6.978;2024-02-28T08:14:27;98.37;;;47.97;;
20824;SDS011;10573;50.936;6.978;2024-02-28T08:16:54;92.68;;;48.95;;
20824;SDS011;10573;50.936;6.978;2024-02-28T08:19:19;91.53;;;47.05;;
20824;SDS011;10573;50.936;6.978;2024-02-28T08:21:45;91.87;;;46.87;;
20824;SDS011;10573;50.936;6.978;2024-02-28T08:24:11;91.57;;;47.25;;
20824;SDS011;10573;50.936;6.978;2024-02-28T08:26:36;93.18;;;47.45;;
20824;SDS011;10573;50.936;6.978;2024-02-28T08:29:02;90.00;;;47.50;;
20824;SDS011;10573;50.936;6.978;2024-02-28T08:31:28;88.35;;;46.10;;
20824;SDS011;10573;50.936;6.978;2024-02-28T08:33:53;92.17;;;48.17;;
20824;SDS011;10573;50.936;6.978;2024-02-28T08:36:20;96.10;;;48.63;;
20824;SDS011;10573;50.936;6.978;2024-02-28T08:38:46;91.55;;;46.88;;
20824;SDS011;10573;50.936;6.978;2024-02-28T08:41:11;86.90;;;45.07;;
20824;SDS011;10573;50.936;6.978;2024-02-28T08:43:40;85.17;;;43.70;;
20824;SDS011;10573;50.936;6.978;2024-02-28T08:46:06;82.72;;;43.28;;
20824;SDS011;10573;50.936;6.978;2024-02-28T08:48:34;83.35;;;41.55;;
20824;SDS011;10573;50.936;6.978;2024-02-28T08:51:02;79.85;;;42.92;;
20824;SDS011;10573;50.936;6.978;2024-02-28T08:53:28;79.28;;;41.65;;
20824;SDS011;10573;50.936;6.978;2024-02-28T08:55:53;80.78;;;42.78;;
20824;SDS011;10573;50.936;6.978;2024-02-28T08:58:19;74.73;;;39.40;;
20824;SDS011;10573;50.936;6.978;2024-02-28T09:00:44;78.47;;;41.03;;
20824;SDS011;10573;50.936;6.978;2024-02-28T09:03:10;76.03;;;42.00;;
20824;SDS011;10573;50.936;6.978;2024-02-28T09:05:35;77.90;;;42.13;;
20824;SDS011;10573;50.936;6.978;2024-02-28T09:08:00;75.23;;;40.87;;
20824;SDS011;10573;50.936;6.978;2024-02-28T09:10:27;71.85;;;39.08;;
20824;SDS011;10573;50.936;6.978;2024-02-28T09:12:53;74.43;;;41.10;;
20824;SDS011;10573;50.936;6.978;2024-02-28T09:15:19;74.50;;;40.97;;
20824;SDS011;10573;50.936;6.978;2024-02-28T09:17:45;75.32;;;41.17;;
20824;SDS011;10573;50.936;6.978;2024-02-28T09:20:10;75.07;;;40.22;;
20824;SDS011;10573;50.936;6.978;2024-02-28T09:22:37;73.97;;;40.70;;
20824;SDS011;10573;50.936;6.978;2024-02-28T09:25:03;74.22;;;40.05;;
20824;SDS011;10573;50.936;6.978;2024-02-28T09:27:31;73.03;;;40.50;;
20824;SDS011;10573;50.936;6.978;2024-02-28T09:29:56;73.45;;;39.95;;
20824;SDS011;10573;50.936;6.978;2024-02-28T09:32:22;75.78;;;41.00;;
20824;SDS011;10573;50.936;6.978;2024-02-28T09:34:48;79.68;;;42.35;;
20824;SDS011;10573;50.936;6.978;2024-02-28T09:37:14;75.60;;;41.33;;
20824;SDS011;10573;50.936;6.978;2024-02-28T09:39:40;73.60;;;41.50;;
20824;SDS011;10573;50.936;6.978;2024-02-28T09:42:06;72.30;;;40.63;;
20824;SDS011;10573;50.936;6.978;2024-02-28T09:44:33;71.73;;;39.37;;
20824;SDS011;10573;50.936;6.978;2024-02-28T09:46:59;75.70;;;41.45;;
20824;SDS011;10573;50.936;6.978;2024-02-28T09:49:25;72.27;;;40.73;;
20824;SDS011;10573;50.936;6.978;2024-02-28T09:51:52;73.63;;;39.95;;
20824;SDS011;10573;50.936;6.978;2024-02-28T09:54:18;73.68;;;40.47;;
20824;SDS011;10573;50.936;6.978;2024-02-28T09:56:43;72.28;;;38.78;;
20824;SDS011;10573;50.936;6.978;2024-02-28T09:59:09;76.55;;;40.97;;
20824;SDS011;10573;50.936;6.978;2024-02-28T10:01:40;75.63;;;41.00;;
20824;SDS011;10573;50.936;6.978;2024-02-28T10:04:09;68.93;;;39.25;;
20824;SDS011;10573;50.936;6.978;2024-02-28T10:06:37;70.38;;;38.13;;
20824;SDS011;10573;50.936;6.978;2024-02-28T10:09:04;68.88;;;39.22;;
20824;SDS011;10573;50.936;6.978;2024-02-28T10:11:30;74.17;;;40.20;;
20824;SDS011;10573;50.936;6.978;2024-02-28T10:13:57;72.93;;;40.27;;
20824;SDS011;10573;50.936;6.978;2024-02-28T10:16:22;74.55;;;41.33;;
20824;SDS011;10573;50.936;6.978;2024-02-28T10:18:50;74.43;;;41.15;;
20824;SDS011;10573;50.936;6.978;2024-02-28T10:21:15;74.22;;;40.40;;
20824;SDS011;10573;50.936;6.978;2024-02-28T10:23:41;73.37;;;41.00;;
20824;SDS011;10573;50.936;6.978;2024-02-28T10:26:10;70.80;;;39.27;;
20824;SDS011;10573;50.936;6.978;2024-02-28T10:28:37;71.35;;;39.33;;
20824;SDS011;10573;50.936;6.978;2024-02-28T10:31:05;62.58;;;37.20;;
20824;SDS011;10573;50.936;6.978;2024-02-28T10:33:32;67.72;;;38.33;;
20824;SDS011;10573;50.936;6.978;2024-02-28T10:35:58;67.47;;;38.30;;
20824;SDS011;10573;50.936;6.978;2024-02-28T10:38:24;69.97;;;38.30;;
20824;SDS011;10573;50.936;6.978;2024-02-28T10:40:52;67.25;;;38.65;;
20824;SDS011;10573;50.936;6.978;2024-02-28T10:43:18;67.85;;;38.55;;
20824;SDS011;10573;50.936;6.978;2024-02-28T10:45:46;67.65;;;38.65;;
20824;SDS011;10573;50.936;6.978;2024-02-28T10:48:15;66.68;;;37.70;;
20824;SDS011;10573;50.936;6.978;2024-02-28T10:50:43;70.05;;;38.47;;
20824;SDS011;10573;50.936;6.978;2024-02-28T10:53:13;66.30;;;37.60;;
20824;SDS011;10573;50.936;6.978;2024-02-28T10:55:42;64.57;;;36.97;;
20824;SDS011;10573;50.936;6.978;2024-02-28T10:58:19;61.10;;;37.05;;
20824;SDS011;10573;50.936;6.978;2024-02-28T11:00:47;64.20;;;36.90;;
20824;SDS011;10573;50.936;6.978;2024-02-28T11:03:16;62.38;;;36.65;;
20824;SDS011;10573;50.936;6.978;2024-02-28T11:05:42;60.70;;;35.70;;
20824;SDS011;10573;50.936;6.978;2024-02-28T11:08:22;64.22;;;36.65;;
20824;SDS011;10573;50.936;6.978;2024-02-28T11:10:55;62.17;;;35.70;;
20824;SDS011;10573;50.936;6.978;2024-02-28T11:13:29;64.63;;;35.80;;
20824;SDS011;10573;50.936;6.978;2024-02-28T11:16:06;60.50;;;34.77;;
20824;SDS011;10573;50.936;6.978;2024-02-28T11:18:33;59.58;;;35.92;;
20824;SDS011;10573;50.936;6.978;2024-02-28T11:20:59;59.22;;;36.33;;
20824;SDS011;10573;50.936;6.978;2024-02-28T11:23:24;60.23;;;34.80;;
20824;SDS011;10573;50.936;6.978;2024-02-28T11:25:51;60.75;;;36.00;;
20824;SDS011;10573;50.936;6.978;2024-02-28T11:28:17;56.50;;;34.10;;
20824;SDS011;10573;50.936;6.978;2024-02-28T11:30:42;56.65;;;35.08;;
20824;SDS011;10573;50.936;6.978;2024-02-28T11:33:07;55.77;;;34.47;;
20824;SDS011;10573;50.936;6.978;2024-02-28T11:35:34;57.67;;;34.25;;
20824;SDS011;10573;50.936;6.978;2024-02-28T11:38:00;56.97;;;34.30;;
20824;SDS011;10573;50.936;6.978;2024-02-28T11:40:26;56.50;;;34.58;;
20824;SDS011;10573;50.936;6.978;2024-02-28T11:42:54;58.50;;;34.58;;
20824;SDS011;10573;50.936;6.978;2024-02-28T11:45:21;54.47;;;34.30;;
20824;SDS011;10573;50.936;6.978;2024-02-28T11:47:47;56.53;;;34.17;;
20824;SDS011;10573;50.936;6.978;2024-02-28T11:50:13;55.90;;;33.88;;
20824;SDS011;10573;50.936;6.978;2024-02-28T11:52:43;56.25;;;33.38;;
20824;SDS011;10573;50.936;6.978;2024-02-28T11:55:09;54.10;;;32.37;;
20824;SDS011;10573;50.936;6.978;2024-02-28T11:57:35;52.20;;;31.45;;
20824;SDS011;10573;50.936;6.978;2024-02-28T12:00:06;51.67;;;31.52;;
20824;SDS011;10573;50.936;6.978;2024-02-28T12:02:32;52.47;;;32.03;;
20824;SDS011;10573;50.936;6.978;2024-02-28T12:05:01;51.07;;;32.63;;
20824;SDS011;10573;50.936;6.978;2024-02-28T12:07:31;49.55;;;30.67;;
20824;SDS011;10573;50.936;6.978;2024-02-28T12:09:58;48.80;;;30.90;;
20824;SDS011;10573;50.936;6.978;2024-02-28T12:12:24;49.03;;;30.80;;
20824;SDS011;10573;50.936;6.978;2024-02-28T12:14:52;49.85;;;31.50;;
20824;SDS011;10573;50.936;6.978;2024-02-28T12:17:17;46.67;;;29.60;;
20824;SDS011;10573;50.936;6.978;2024-02-28T12:19:43;50.93;;;31.40;;
20824;SDS011;10573;50.936;6.978;2024-02-28T12:22:08;47.97;;;30.87;;
20824;SDS011;10573;50.936;6.978;2024-02-28T12:24:34;44.43;;;27.43;;
20824;SDS011;10573;50.936;6.978;2024-02-28T12:26:59;41.05;;;26.73;;
20824;SDS011;10573;50.936;6.978;2024-02-28T12:29:25;41.73;;;27.47;;
20824;SDS011;10573;50.936;6.978;2024-02-28T12:31:50;39.45;;;26.50;;
20824;SDS011;10573;50.936;6.978;2024-02-28T12:34:17;40.30;;;25.80;;
20824;SDS011;10573;50.936;6.978;2024-02-28T12:36:42;34.05;;;23.52;;
20824;SDS011;10573;50.936;6.978;2024-02-28T12:39:08;35.72;;;25.50;;
20824;SDS011;10573;50.936;6.978;2024-02-28T12:41:37;39.60;;;25.83;;
20824;SDS011;10573;50.936;6.978;2024-02-28T12:44:05;34.90;;;24.85;;
20824;SDS011;10573;50.936;6.978;2024-02-28T12:46:31;34.38;;;24.67;;
20824;SDS011;10573;50.936;6.978;2024-02-28T12:48:56;37.30;;;24.88;;
20824;SDS011;10573;50.936;6.978;2024-02-28T12:54:10;33.15;;;22.92;;
20824;SDS011;10573;50.936;6.978;2024-02-28T12:56:38;33.60;;;23.50;;
20824;SDS011;10573;50.936;6.978;2024-02-28T12:59:04;34.63;;;24.15;;
20824;SDS011;10573;50.936;6.978;2024-02-28T13:01:32;34.75;;;24.27;;
20824;SDS011;10573;50.936;6.978;2024-02-28T13:03:58;36.10;;;24.42;;
20824;SDS011;10573;50.936;6.978;2024-02-28T13:06:23;31.70;;;22.47;;
20824;SDS011;10573;50.936;6.978;2024-02-28T13:08:49;34.03;;;23.67;;
20824;SDS011;10573;50.936;6.978;2024-02-28T13:11:18;33.28;;;23.95;;
20824;SDS011;10573;50.936;6.978;2024-02-28T13:13:45;32.58;;;22.70;;
20824;SDS011;10573;50.936;6.978;2024-02-28T13:16:10;37.20;;;24.00;;
20824;SDS011;10573;50.936;6.978;2024-02-28T13:18:36;37.67;;;24.90;;
20824;SDS011;10573;50.936;6.978;2024-02-28T13:21:01;32.23;;;22.47;;
20824;SDS011;10573;50.936;6.978;2024-02-28T13:23:28;33.20;;;22.33;;
20824;SDS011;10573;50.936;6.978;2024-02-28T13:25:56;33.05;;;22.88;;
20824;SDS011;10573;50.936;6.978;2024-02-28T13:28:21;34.80;;;23.63;;
20824;SDS011;10573;50.936;6.978;2024-02-28T13:30:55;31.55;;;22.42;;
20824;SDS011;10573;50.936;6.978;2024-02-28T13:33:22;36.03;;;23.40;;
20824;SDS011;10573;50.936;6.978;2024-02-28T13:35:47;32.40;;;22.15;;
20824;SDS011;10573;50.936;6.978;2024-02-28T13:38:13;34.92;;;23.40;;
20824;SDS011;10573;50.936;6.978;2024-02-28T13:40:39;32.70;;;22.33;;
20824;SDS011;10573;50.936;6.978;2024-02-28T13:43:05;34.03;;;22.45;;
20824;SDS011;10573;50.936;6.978;2024-02-28T13:45:30;30.63;;;21.40;;
20824;SDS011;10573;50.936;6.978;2024-02-28T13:47:56;31.73;;;21.33;;
20824;SDS011;10573;50.936;6.978;2024-02-28T13:50:23;30.77;;;21.27;;
20824;SDS011;10573;50.936;6.978;2024-02-28T13:52:56;28.27;;;20.10;;
20824;SDS011;10573;50.936;6.978;2024-02-28T13:55:22;33.33;;;22.30;;
20824;SDS011;10573;50.936;6.978;2024-02-28T13:57:49;33.42;;;22.20;;
20824;SDS011;10573;50.936;6.978;2024-02-28T14:00:14;32.08;;;20.23;;
20824;SDS011;10573;50.936;6.978;2024-02-28T14:02:40;30.00;;;20.30;;
20824;SDS011;10573;50.936;6.978;2024-02-28T14:05:06;31.00;;;19.77;;
20824;SDS011;10573;50.936;6.978;2024-02-28T14:07:35;28.63;;;18.70;;
20824;SDS011;10573;50.936;6.978;2024-02-28T14:10:03;29.45;;;19.40;;
20824;SDS011;10573;50.936;6.978;2024-02-28T14:12:29;30.88;;;19.42;;
20824;SDS011;10573;50.936;6.978;2024-02-28T14:14:55;29.33;;;19.40;;